Fecha, hora, temperatura, viento dirección y velocidad, humedad y presión.

  • 26-02-2020 16:00:00 | 12.40°C | Noroeste |14.00 km/h | 79.00% | 0.00 hPa
  • 26-02-2020 15:00:00 | 11.80°C | Noroeste |16.00 km/h | 79.00% | 0.00 hPa
  • 26-02-2020 14:00:00 | 13.20°C | Oeste |27.00 km/h | 67.00% | 0.00 hPa
  • 26-02-2020 12:00:00 | 11.40°C | Oeste |27.00 km/h | 84.00% | 0.00 hPa
  • 26-02-2020 12:00:00 | 11.40°C | Oeste |27.00 km/h | 84.00% | 0.00 hPa
  • 26-02-2020 11:00:00 | 11.40°C | Oeste |27.00 km/h | 83.00% | 0.00 hPa
  • 26-02-2020 10:00:00 | 11.20°C | Oeste |27.00 km/h | 86.00% | 0.00 hPa
  • 26-02-2020 09:00:00 | 11.40°C | Oeste |25.00 km/h | 81.00% | 0.00 hPa
  • 26-02-2020 08:00:00 | 11.40°C | Oeste |28.00 km/h | 82.00% | 0.00 hPa
  • 26-02-2020 07:00:00 | 11.20°C | Oeste |31.00 km/h | 85.00% | 0.00 hPa
  • 26-02-2020 06:00:00 | 10.20°C | Oeste |33.00 km/h | 89.00% | 0.00 hPa
  • 26-02-2020 05:00:00 | 10.10°C | Oeste |28.00 km/h | 91.00% | 0.00 hPa
  • 26-02-2020 04:00:00 | 11.40°C | Oeste |34.00 km/h | 77.00% | 0.00 hPa
  • 26-02-2020 03:00:00 | 10.80°C | Oeste |34.00 km/h | 88.00% | 0.00 hPa
  • 26-02-2020 02:00:00 | 12.30°C | Oeste |35.00 km/h | 70.00% | 0.00 hPa
  • 26-02-2020 01:00:00 | 12.30°C | Oeste |32.00 km/h | 68.00% | 0.00 hPa
  • 26-02-2020 00:00:00 | 12.20°C | Oeste |36.00 km/h | 71.00% | 0.00 hPa
  • 25-02-2020 23:00:00 | 12.60°C | Oeste |27.00 km/h | 73.00% | 0.00 hPa
  • 25-02-2020 22:00:00 | 12.50°C | Oeste |40.00 km/h | 71.00% | 0.00 hPa
  • 25-02-2020 21:00:00 | 11.50°C | Noroeste |26.00 km/h | 82.00% | 0.00 hPa
  • 25-02-2020 20:00:00 | 12.90°C | Noroeste |22.00 km/h | 76.00% | 0.00 hPa
  • 25-02-2020 19:00:00 | 12.80°C | Oeste |28.00 km/h | 69.00% | 0.00 hPa
  • 25-02-2020 18:00:00 | 13.00°C | Noroeste |20.00 km/h | 68.00% | 0.00 hPa
  • 25-02-2020 17:00:00 | 12.70°C | Noroeste |22.00 km/h | 76.00% | 0.00 hPa
    • Información sobre el estado de las mareas, altura de la marejada, temperatura del agua y otros datos de Gijón en Asturias.

      Surf Gijón